sensor_id;sensor_type;location;lat;lon;timestamp;P1;durP1;ratioP1;P2;durP2;ratioP2
29570;SDS011;16814;52.118;11.436;2023-04-15T00:01:57;7.43;;;5.35;;
29570;SDS011;16814;52.118;11.436;2023-04-15T00:04:26;7.28;;;5.15;;
29570;SDS011;16814;52.118;11.436;2023-04-15T00:06:52;7.93;;;5.18;;
29570;SDS011;16814;52.118;11.436;2023-04-15T00:09:19;7.68;;;5.03;;
29570;SDS011;16814;52.118;11.436;2023-04-15T00:11:48;6.97;;;5.33;;
29570;SDS011;16814;52.118;11.436;2023-04-15T00:14:14;7.90;;;5.53;;
29570;SDS011;16814;52.118;11.436;2023-04-15T00:16:42;7.43;;;5.40;;
29570;SDS011;16814;52.118;11.436;2023-04-15T00:19:08;6.85;;;5.10;;
29570;SDS011;16814;52.118;11.436;2023-04-15T00:21:36;9.50;;;5.78;;
29570;SDS011;16814;52.118;11.436;2023-04-15T00:24:03;8.45;;;5.40;;
29570;SDS011;16814;52.118;11.436;2023-04-15T00:26:31;7.07;;;5.35;;
29570;SDS011;16814;52.118;11.436;2023-04-15T00:28:57;8.70;;;5.80;;
29570;SDS011;16814;52.118;11.436;2023-04-15T00:31:24;8.75;;;6.30;;
29570;SDS011;16814;52.118;11.436;2023-04-15T00:33:51;10.33;;;7.67;;
29570;SDS011;16814;52.118;11.436;2023-04-15T00:36:19;14.57;;;9.32;;
29570;SDS011;16814;52.118;11.436;2023-04-15T00:38:44;14.20;;;9.93;;
29570;SDS011;16814;52.118;11.436;2023-04-15T00:41:10;18.33;;;11.53;;
29570;SDS011;16814;52.118;11.436;2023-04-15T00:43:38;19.83;;;12.43;;
29570;SDS011;16814;52.118;11.436;2023-04-15T00:46:03;21.95;;;13.23;;
29570;SDS011;16814;52.118;11.436;2023-04-15T00:48:32;22.02;;;13.55;;
29570;SDS011;16814;52.118;11.436;2023-04-15T00:51:00;23.40;;;13.50;;
29570;SDS011;16814;52.118;11.436;2023-04-15T00:53:30;25.17;;;14.33;;
29570;SDS011;16814;52.118;11.436;2023-04-15T00:55:59;24.92;;;13.80;;
29570;SDS011;16814;52.118;11.436;2023-04-15T00:58:26;24.00;;;12.90;;
29570;SDS011;16814;52.118;11.436;2023-04-15T01:00:54;19.13;;;11.23;;
29570;SDS011;16814;52.118;11.436;2023-04-15T01:03:31;19.08;;;11.20;;
29570;SDS011;16814;52.118;11.436;2023-04-15T01:05:59;19.75;;;10.82;;
29570;SDS011;16814;52.118;11.436;2023-04-15T01:08:31;17.67;;;10.20;;
29570;SDS011;16814;52.118;11.436;2023-04-15T01:10:57;14.90;;;8.60;;
29570;SDS011;16814;52.118;11.436;2023-04-15T01:13:27;14.13;;;9.07;;
29570;SDS011;16814;52.118;11.436;2023-04-15T01:15:58;12.35;;;8.40;;
29570;SDS011;16814;52.118;11.436;2023-04-15T01:18:30;11.82;;;8.30;;
29570;SDS011;16814;52.118;11.436;2023-04-15T01:20:57;11.75;;;8.30;;
29570;SDS011;16814;52.118;11.436;2023-04-15T01:23:26;11.25;;;7.97;;
29570;SDS011;16814;52.118;11.436;2023-04-15T01:25:53;11.88;;;8.32;;
29570;SDS011;16814;52.118;11.436;2023-04-15T01:28:19;11.23;;;8.63;;
29570;SDS011;16814;52.118;11.436;2023-04-15T01:30:46;11.85;;;8.88;;
29570;SDS011;16814;52.118;11.436;2023-04-15T01:33:14;13.83;;;8.83;;
29570;SDS011;16814;52.118;11.436;2023-04-15T01:35:41;11.85;;;8.63;;
29570;SDS011;16814;52.118;11.436;2023-04-15T01:38:14;11.95;;;8.48;;
29570;SDS011;16814;52.118;11.436;2023-04-15T01:40:44;12.48;;;9.00;;
29570;SDS011;16814;52.118;11.436;2023-04-15T01:43:11;13.05;;;9.23;;
29570;SDS011;16814;52.118;11.436;2023-04-15T01:45:36;14.05;;;9.60;;
29570;SDS011;16814;52.118;11.436;2023-04-15T01:48:03;15.33;;;10.37;;
29570;SDS011;16814;52.118;11.436;2023-04-15T01:50:31;13.35;;;9.38;;
29570;SDS011;16814;52.118;11.436;2023-04-15T01:52:57;12.10;;;8.90;;
29570;SDS011;16814;52.118;11.436;2023-04-15T01:55:24;14.57;;;9.87;;
29570;SDS011;16814;52.118;11.436;2023-04-15T01:57:51;16.13;;;10.60;;
29570;SDS011;16814;52.118;11.436;2023-04-15T02:00:19;14.73;;;10.10;;
29570;SDS011;16814;52.118;11.436;2023-04-15T02:02:47;14.97;;;9.40;;
29570;SDS011;16814;52.118;11.436;2023-04-15T02:05:14;15.15;;;10.15;;
29570;SDS011;16814;52.118;11.436;2023-04-15T02:07:43;15.25;;;10.23;;
29570;SDS011;16814;52.118;11.436;2023-04-15T02:10:12;15.70;;;10.40;;
29570;SDS011;16814;52.118;11.436;2023-04-15T02:12:40;16.48;;;10.45;;
29570;SDS011;16814;52.118;11.436;2023-04-15T02:15:09;15.98;;;10.70;;
29570;SDS011;16814;52.118;11.436;2023-04-15T02:17:36;14.98;;;9.80;;
29570;SDS011;16814;52.118;11.436;2023-04-15T02:20:02;13.23;;;9.35;;
29570;SDS011;16814;52.118;11.436;2023-04-15T02:22:36;14.40;;;9.40;;
29570;SDS011;16814;52.118;11.436;2023-04-15T02:25:04;14.13;;;9.43;;
29570;SDS011;16814;52.118;11.436;2023-04-15T02:27:32;14.52;;;9.15;;
29570;SDS011;16814;52.118;11.436;2023-04-15T02:30:04;15.48;;;9.30;;
29570;SDS011;16814;52.118;11.436;2023-04-15T02:32:33;11.82;;;8.45;;
29570;SDS011;16814;52.118;11.436;2023-04-15T02:35:03;11.47;;;8.40;;
29570;SDS011;16814;52.118;11.436;2023-04-15T02:37:33;12.50;;;8.55;;
29570;SDS011;16814;52.118;11.436;2023-04-15T02:40:08;13.00;;;8.23;;
29570;SDS011;16814;52.118;11.436;2023-04-15T02:42:36;10.30;;;7.40;;
29570;SDS011;16814;52.118;11.436;2023-04-15T02:45:03;10.85;;;7.15;;
29570;SDS011;16814;52.118;11.436;2023-04-15T02:47:33;11.87;;;7.30;;
29570;SDS011;16814;52.118;11.436;2023-04-15T02:50:10;10.70;;;7.65;;
29570;SDS011;16814;52.118;11.436;2023-04-15T02:52:51;9.98;;;7.10;;
29570;SDS011;16814;52.118;11.436;2023-04-15T02:55:24;11.60;;;7.07;;
29570;SDS011;16814;52.118;11.436;2023-04-15T02:57:50;12.40;;;7.53;;
29570;SDS011;16814;52.118;11.436;2023-04-15T03:00:16;11.23;;;6.78;;
29570;SDS011;16814;52.118;11.436;2023-04-15T03:02:44;12.27;;;7.07;;
29570;SDS011;16814;52.118;11.436;2023-04-15T03:05:12;10.33;;;6.70;;
29570;SDS011;16814;52.118;11.436;2023-04-15T03:07:38;10.57;;;6.97;;
29570;SDS011;16814;52.118;11.436;2023-04-15T03:10:10;9.32;;;6.55;;
29570;SDS011;16814;52.118;11.436;2023-04-15T03:12:36;9.20;;;6.37;;
29570;SDS011;16814;52.118;11.436;2023-04-15T03:15:02;8.83;;;6.10;;
29570;SDS011;16814;52.118;11.436;2023-04-15T03:17:28;8.45;;;5.75;;
29570;SDS011;16814;52.118;11.436;2023-04-15T03:19:54;8.82;;;5.90;;
29570;SDS011;16814;52.118;11.436;2023-04-15T03:22:22;8.38;;;5.90;;
29570;SDS011;16814;52.118;11.436;2023-04-15T03:24:49;9.67;;;5.97;;
29570;SDS011;16814;52.118;11.436;2023-04-15T03:27:19;7.97;;;6.00;;
29570;SDS011;16814;52.118;11.436;2023-04-15T03:29:46;7.05;;;5.20;;
29570;SDS011;16814;52.118;11.436;2023-04-15T03:32:12;8.38;;;5.20;;
29570;SDS011;16814;52.118;11.436;2023-04-15T03:34:41;8.27;;;5.70;;
29570;SDS011;16814;52.118;11.436;2023-04-15T03:37:08;8.18;;;5.40;;
29570;SDS011;16814;52.118;11.436;2023-04-15T03:39:34;7.67;;;5.57;;
29570;SDS011;16814;52.118;11.436;2023-04-15T03:42:01;10.52;;;5.80;;
29570;SDS011;16814;52.118;11.436;2023-04-15T03:44:28;7.35;;;5.32;;
29570;SDS011;16814;52.118;11.436;2023-04-15T03:46:58;8.00;;;5.43;;
29570;SDS011;16814;52.118;11.436;2023-04-15T03:49:26;7.88;;;5.43;;
29570;SDS011;16814;52.118;11.436;2023-04-15T03:51:52;8.18;;;5.45;;
29570;SDS011;16814;52.118;11.436;2023-04-15T03:54:20;8.27;;;5.63;;
29570;SDS011;16814;52.118;11.436;2023-04-15T03:56:47;7.68;;;5.32;;
29570;SDS011;16814;52.118;11.436;2023-04-15T03:59:14;8.45;;;5.65;;
29570;SDS011;16814;52.118;11.436;2023-04-15T04:01:41;7.25;;;5.43;;
29570;SDS011;16814;52.118;11.436;2023-04-15T04:04:09;8.18;;;5.10;;
29570;SDS011;16814;52.118;11.436;2023-04-15T04:06:36;7.88;;;5.55;;
29570;SDS011;16814;52.118;11.436;2023-04-15T04:09:03;9.32;;;5.10;;
29570;SDS011;16814;52.118;11.436;2023-04-15T04:11:30;9.95;;;5.60;;
29570;SDS011;16814;52.118;11.436;2023-04-15T04:13:57;7.78;;;5.40;;
29570;SDS011;16814;52.118;11.436;2023-04-15T04:16:24;8.38;;;5.47;;
29570;SDS011;16814;52.118;11.436;2023-04-15T04:18:51;11.25;;;5.45;;
29570;SDS011;16814;52.118;11.436;2023-04-15T04:21:18;15.13;;;5.50;;
29570;SDS011;16814;52.118;11.436;2023-04-15T04:23:45;9.13;;;5.50;;
29570;SDS011;16814;52.118;11.436;2023-04-15T04:26:12;7.70;;;5.20;;
29570;SDS011;16814;52.118;11.436;2023-04-15T04:28:40;7.97;;;5.38;;
29570;SDS011;16814;52.118;11.436;2023-04-15T04:31:06;7.53;;;5.30;;
29570;SDS011;16814;52.118;11.436;2023-04-15T04:33:32;10.13;;;5.68;;
29570;SDS011;16814;52.118;11.436;2023-04-15T04:35:59;9.80;;;5.50;;
29570;SDS011;16814;52.118;11.436;2023-04-15T04:38:26;12.90;;;5.72;;
29570;SDS011;16814;52.118;11.436;2023-04-15T04:40:52;9.17;;;5.63;;
29570;SDS011;16814;52.118;11.436;2023-04-15T04:43:18;9.02;;;5.70;;
29570;SDS011;16814;52.118;11.436;2023-04-15T04:45:44;14.30;;;5.97;;
29570;SDS011;16814;52.118;11.436;2023-04-15T04:48:09;9.85;;;5.57;;
29570;SDS011;16814;52.118;11.436;2023-04-15T04:50:37;10.10;;;5.93;;
29570;SDS011;16814;52.118;11.436;2023-04-15T04:53:04;8.80;;;5.43;;
29570;SDS011;16814;52.118;11.436;2023-04-15T04:55:30;11.00;;;5.80;;
29570;SDS011;16814;52.118;11.436;2023-04-15T04:58:01;8.17;;;5.23;;
29570;SDS011;16814;52.118;11.436;2023-04-15T05:00:28;9.10;;;5.47;;
29570;SDS011;16814;52.118;11.436;2023-04-15T05:02:54;8.95;;;5.30;;
29570;SDS011;16814;52.118;11.436;2023-04-15T05:05:21;9.88;;;5.22;;
29570;SDS011;16814;52.118;11.436;2023-04-15T05:07:46;8.30;;;5.15;;
29570;SDS011;16814;52.118;11.436;2023-04-15T05:10:14;8.23;;;5.07;;
29570;SDS011;16814;52.118;11.436;2023-04-15T05:12:50;8.68;;;5.15;;
29570;SDS011;16814;52.118;11.436;2023-04-15T05:15:18;7.50;;;4.82;;
29570;SDS011;16814;52.118;11.436;2023-04-15T05:17:43;7.88;;;5.03;;
29570;SDS011;16814;52.118;11.436;2023-04-15T05:20:09;8.20;;;4.63;;
29570;SDS011;16814;52.118;11.436;2023-04-15T05:22:40;7.03;;;4.80;;
29570;SDS011;16814;52.118;11.436;2023-04-15T05:25:06;6.05;;;4.38;;
29570;SDS011;16814;52.118;11.436;2023-04-15T05:27:35;6.63;;;4.47;;
29570;SDS011;16814;52.118;11.436;2023-04-15T05:30:01;6.88;;;4.75;;
29570;SDS011;16814;52.118;11.436;2023-04-15T05:32:29;8.63;;;5.38;;
29570;SDS011;16814;52.118;11.436;2023-04-15T05:34:57;8.10;;;4.80;;
29570;SDS011;16814;52.118;11.436;2023-04-15T05:37:23;8.65;;;4.72;;
29570;SDS011;16814;52.118;11.436;2023-04-15T05:39:48;8.02;;;5.20;;
29570;SDS011;16814;52.118;11.436;2023-04-15T05:42:14;38.70;;;6.53;;
29570;SDS011;16814;52.118;11.436;2023-04-15T05:44:42;16.02;;;5.05;;
29570;SDS011;16814;52.118;11.436;2023-04-15T05:47:09;30.63;;;6.40;;
29570;SDS011;16814;52.118;11.436;2023-04-15T05:49:36;15.82;;;5.35;;
29570;SDS011;16814;52.118;11.436;2023-04-15T05:52:03;10.75;;;4.60;;
29570;SDS011;16814;52.118;11.436;2023-04-15T05:54:33;9.32;;;4.80;;
29570;SDS011;16814;52.118;11.436;2023-04-15T05:57:02;11.43;;;5.18;;
29570;SDS011;16814;52.118;11.436;2023-04-15T05:59:29;9.27;;;4.38;;
29570;SDS011;16814;52.118;11.436;2023-04-15T06:01:57;9.52;;;4.38;;
29570;SDS011;16814;52.118;11.436;2023-04-15T06:04:23;8.90;;;5.10;;
29570;SDS011;16814;52.118;11.436;2023-04-15T06:06:50;7.23;;;4.80;;
29570;SDS011;16814;52.118;11.436;2023-04-15T06:09:18;21.73;;;4.85;;
29570;SDS011;16814;52.118;11.436;2023-04-15T06:11:45;7.70;;;5.13;;
29570;SDS011;16814;52.118;11.436;2023-04-15T06:14:12;7.10;;;4.80;;
29570;SDS011;16814;52.118;11.436;2023-04-15T06:16:39;6.80;;;4.70;;
29570;SDS011;16814;52.118;11.436;2023-04-15T06:19:06;6.87;;;4.60;;
29570;SDS011;16814;52.118;11.436;2023-04-15T06:21:33;6.80;;;4.65;;
29570;SDS011;16814;52.118;11.436;2023-04-15T06:23:58;6.87;;;4.73;;
29570;SDS011;16814;52.118;11.436;2023-04-15T06:26:26;8.95;;;5.20;;
29570;SDS011;16814;52.118;11.436;2023-04-15T06:28:53;7.82;;;5.20;;
29570;SDS011;16814;52.118;11.436;2023-04-15T06:31:21;10.15;;;6.97;;
29570;SDS011;16814;52.118;11.436;2023-04-15T06:33:48;23.65;;;17.00;;
29570;SDS011;16814;52.118;11.436;2023-04-15T06:36:15;13.45;;;8.77;;
29570;SDS011;16814;52.118;11.436;2023-04-15T06:38:41;10.57;;;8.02;;
29570;SDS011;16814;52.118;11.436;2023-04-15T06:41:08;9.70;;;6.60;;
29570;SDS011;16814;52.118;11.436;2023-04-15T06:43:33;12.18;;;8.43;;
29570;SDS011;16814;52.118;11.436;2023-04-15T06:46:00;10.30;;;8.02;;
29570;SDS011;16814;52.118;11.436;2023-04-15T06:48:27;9.90;;;6.47;;
29570;SDS011;16814;52.118;11.436;2023-04-15T06:50:55;11.02;;;7.90;;
29570;SDS011;16814;52.118;11.436;2023-04-15T06:53:22;12.23;;;8.75;;
29570;SDS011;16814;52.118;11.436;2023-04-15T06:55:51;11.90;;;8.32;;
29570;SDS011;16814;52.118;11.436;2023-04-15T06:58:17;9.30;;;6.50;;
29570;SDS011;16814;52.118;11.436;2023-04-15T07:00:44;10.32;;;6.90;;
29570;SDS011;16814;52.118;11.436;2023-04-15T07:03:13;10.57;;;7.88;;
29570;SDS011;16814;52.118;11.436;2023-04-15T07:05:42;12.00;;;8.02;;
29570;SDS011;16814;52.118;11.436;2023-04-15T07:08:09;10.73;;;7.47;;
29570;SDS011;16814;52.118;11.436;2023-04-15T07:10:35;10.07;;;6.80;;
29570;SDS011;16814;52.118;11.436;2023-04-15T07:13:03;10.23;;;6.90;;
29570;SDS011;16814;52.118;11.436;2023-04-15T07:15:34;11.68;;;7.75;;
29570;SDS011;16814;52.118;11.436;2023-04-15T07:18:01;12.63;;;8.27;;
29570;SDS011;16814;52.118;11.436;2023-04-15T07:20:27;13.98;;;9.55;;
29570;SDS011;16814;52.118;11.436;2023-04-15T07:22:54;14.25;;;9.13;;
29570;SDS011;16814;52.118;11.436;2023-04-15T07:25:22;16.95;;;9.95;;
29570;SDS011;16814;52.118;11.436;2023-04-15T07:27:48;17.17;;;10.10;;
29570;SDS011;16814;52.118;11.436;2023-04-15T07:30:16;15.97;;;9.97;;
29570;SDS011;16814;52.118;11.436;2023-04-15T07:32:42;17.38;;;10.80;;
29570;SDS011;16814;52.118;11.436;2023-04-15T07:35:07;18.07;;;10.60;;
29570;SDS011;16814;52.118;11.436;2023-04-15T07:37:35;23.42;;;12.85;;
29570;SDS011;16814;52.118;11.436;2023-04-15T07:40:03;22.40;;;13.15;;
29570;SDS011;16814;52.118;11.436;2023-04-15T07:42:31;27.50;;;13.80;;
29570;SDS011;16814;52.118;11.436;2023-04-15T07:44:59;27.75;;;14.30;;
29570;SDS011;16814;52.118;11.436;2023-04-15T07:47:27;25.70;;;14.75;;
29570;SDS011;16814;52.118;11.436;2023-04-15T07:49:55;29.27;;;15.77;;
29570;SDS011;16814;52.118;11.436;2023-04-15T07:52:31;35.88;;;18.92;;
29570;SDS011;16814;52.118;11.436;2023-04-15T07:55:11;34.37;;;18.27;;
29570;SDS011;16814;52.118;11.436;2023-04-15T07:57:39;36.20;;;19.95;;
29570;SDS011;16814;52.118;11.436;2023-04-15T08:00:06;37.70;;;19.55;;
29570;SDS011;16814;52.118;11.436;2023-04-15T08:02:32;36.63;;;19.70;;
29570;SDS011;16814;52.118;11.436;2023-04-15T08:05:00;36.03;;;20.00;;
29570;SDS011;16814;52.118;11.436;2023-04-15T08:07:29;39.20;;;20.90;;
29570;SDS011;16814;52.118;11.436;2023-04-15T08:09:56;40.53;;;21.50;;
29570;SDS011;16814;52.118;11.436;2023-04-15T08:12:24;42.40;;;21.52;;
29570;SDS011;16814;52.118;11.436;2023-04-15T08:14:51;57.00;;;31.83;;
29570;SDS011;16814;52.118;11.436;2023-04-15T08:17:20;48.88;;;24.60;;
29570;SDS011;16814;52.118;11.436;2023-04-15T08:19:47;53.97;;;24.83;;
29570;SDS011;16814;52.118;11.436;2023-04-15T08:22:14;54.25;;;26.35;;
29570;SDS011;16814;52.118;11.436;2023-04-15T08:24:41;61.65;;;28.20;;
29570;SDS011;16814;52.118;11.436;2023-04-15T08:27:07;59.15;;;28.00;;
29570;SDS011;16814;52.118;11.436;2023-04-15T08:29:34;62.85;;;28.55;;
29570;SDS011;16814;52.118;11.436;2023-04-15T08:32:02;73.20;;;31.75;;
29570;SDS011;16814;52.118;11.436;2023-04-15T08:34:28;77.68;;;34.97;;
29570;SDS011;16814;52.118;11.436;2023-04-15T08:36:55;90.57;;;38.47;;
29570;SDS011;16814;52.118;11.436;2023-04-15T08:39:22;100.18;;;41.50;;
29570;SDS011;16814;52.118;11.436;2023-04-15T08:42:00;101.95;;;44.08;;
29570;SDS011;16814;52.118;11.436;2023-04-15T08:44:33;106.93;;;43.22;;
29570;SDS011;16814;52.118;11.436;2023-04-15T08:47:03;111.23;;;46.60;;
29570;SDS011;16814;52.118;11.436;2023-04-15T08:49:35;114.72;;;46.00;;
29570;SDS011;16814;52.118;11.436;2023-04-15T08:52:04;124.30;;;49.28;;
29570;SDS011;16814;52.118;11.436;2023-04-15T08:54:31;122.63;;;49.13;;
29570;SDS011;16814;52.118;11.436;2023-04-15T08:56:57;124.80;;;50.63;;
29570;SDS011;16814;52.118;11.436;2023-04-15T08:59:25;118.88;;;49.45;;
29570;SDS011;16814;52.118;11.436;2023-04-15T09:01:50;121.75;;;52.15;;
29570;SDS011;16814;52.118;11.436;2023-04-15T09:04:19;115.53;;;49.80;;
29570;SDS011;16814;52.118;11.436;2023-04-15T09:06:45;126.82;;;51.78;;
29570;SDS011;16814;52.118;11.436;2023-04-15T09:09:11;124.80;;;51.88;;
29570;SDS011;16814;52.118;11.436;2023-04-15T09:11:40;127.60;;;53.85;;
29570;SDS011;16814;52.118;11.436;2023-04-15T09:14:07;129.57;;;54.72;;
29570;SDS011;16814;52.118;11.436;2023-04-15T09:19:30;133.30;;;56.47;;
29570;SDS011;16814;52.118;11.436;2023-04-15T09:21:59;127.88;;;56.30;;
29570;SDS011;16814;52.118;11.436;2023-04-15T09:24:35;130.80;;;56.00;;
29570;SDS011;16814;52.118;11.436;2023-04-15T09:27:03;127.03;;;55.38;;
29570;SDS011;16814;52.118;11.436;2023-04-15T09:29:32;122.13;;;54.78;;
29570;SDS011;16814;52.118;11.436;2023-04-15T09:32:09;129.20;;;56.10;;
29570;SDS011;16814;52.118;11.436;2023-04-15T09:34:40;125.25;;;56.65;;
29570;SDS011;16814;52.118;11.436;2023-04-15T09:37:08;130.00;;;57.77;;
29570;SDS011;16814;52.118;11.436;2023-04-15T09:42:32;125.90;;;56.17;;
29570;SDS011;16814;52.118;11.436;2023-04-15T09:45:09;131.07;;;58.35;;
29570;SDS011;16814;52.118;11.436;2023-04-15T09:47:37;120.93;;;55.28;;
29570;SDS011;16814;52.118;11.436;2023-04-15T09:50:03;122.18;;;55.20;;
29570;SDS011;16814;52.118;11.436;2023-04-15T09:52:32;123.63;;;54.67;;
29570;SDS011;16814;52.118;11.436;2023-04-15T09:54:58;116.95;;;54.47;;
29570;SDS011;16814;52.118;11.436;2023-04-15T09:57:33;117.63;;;54.13;;
29570;SDS011;16814;52.118;11.436;2023-04-15T10:00:09;122.63;;;54.88;;
29570;SDS011;16814;52.118;11.436;2023-04-15T10:02:36;114.40;;;52.63;;
29570;SDS011;16814;52.118;11.436;2023-04-15T10:05:10;106.38;;;52.10;;
29570;SDS011;16814;52.118;11.436;2023-04-15T10:07:42;115.65;;;53.67;;
29570;SDS011;16814;52.118;11.436;2023-04-15T10:10:11;108.70;;;52.63;;
29570;SDS011;16814;52.118;11.436;2023-04-15T10:12:40;120.93;;;55.30;;
29570;SDS011;16814;52.118;11.436;2023-04-15T10:15:13;125.28;;;56.63;;
29570;SDS011;16814;52.118;11.436;2023-04-15T10:17:43;125.18;;;56.50;;
29570;SDS011;16814;52.118;11.436;2023-04-15T10:20:16;125.88;;;56.53;;
29570;SDS011;16814;52.118;11.436;2023-04-15T10:22:44;119.20;;;54.90;;
29570;SDS011;16814;52.118;11.436;2023-04-15T10:25:11;118.75;;;55.42;;
29570;SDS011;16814;52.118;11.436;2023-04-15T10:27:38;111.05;;;53.85;;
29570;SDS011;16814;52.118;11.436;2023-04-15T10:30:06;114.07;;;53.50;;
29570;SDS011;16814;52.118;11.436;2023-04-15T10:32:35;123.45;;;56.85;;
29570;SDS011;16814;52.118;11.436;2023-04-15T10:35:03;125.28;;;58.78;;
29570;SDS011;16814;52.118;11.436;2023-04-15T10:37:35;115.32;;;56.20;;
29570;SDS011;16814;52.118;11.436;2023-04-15T10:43:02;108.30;;;52.97;;
29570;SDS011;16814;52.118;11.436;2023-04-15T10:45:36;109.97;;;53.97;;
29570;SDS011;16814;52.118;11.436;2023-04-15T10:48:05;108.05;;;54.42;;
29570;SDS011;16814;52.118;11.436;2023-04-15T10:50:33;109.80;;;54.53;;
29570;SDS011;16814;52.118;11.436;2023-04-15T10:53:00;102.77;;;53.53;;
29570;SDS011;16814;52.118;11.436;2023-04-15T10:55:32;104.68;;;54.13;;
29570;SDS011;16814;52.118;11.436;2023-04-15T10:58:00;98.68;;;50.75;;
29570;SDS011;16814;52.118;11.436;2023-04-15T11:00:32;97.15;;;51.42;;
29570;SDS011;16814;52.118;11.436;2023-04-15T11:03:06;101.80;;;50.80;;
29570;SDS011;16814;52.118;11.436;2023-04-15T11:08:15;100.93;;;51.28;;
29570;SDS011;16814;52.118;11.436;2023-04-15T11:13:16;90.10;;;48.00;;
29570;SDS011;16814;52.118;11.436;2023-04-15T11:15:48;86.05;;;48.00;;
29570;SDS011;16814;52.118;11.436;2023-04-15T11:18:24;89.10;;;47.90;;
29570;SDS011;16814;52.118;11.436;2023-04-15T11:20:53;85.90;;;46.20;;
29570;SDS011;16814;52.118;11.436;2023-04-15T11:26:10;83.20;;;47.35;;
29570;SDS011;16814;52.118;11.436;2023-04-15T11:28:37;80.20;;;47.07;;
29570;SDS011;16814;52.118;11.436;2023-04-15T11:31:16;79.23;;;45.23;;
29570;SDS011;16814;52.118;11.436;2023-04-15T11:33:54;80.07;;;46.30;;
29570;SDS011;16814;52.118;11.436;2023-04-15T11:36:23;80.00;;;45.63;;
29570;SDS011;16814;52.118;11.436;2023-04-15T11:38:52;77.85;;;46.53;;
29570;SDS011;16814;52.118;11.436;2023-04-15T11:41:21;80.63;;;46.17;;
29570;SDS011;16814;52.118;11.436;2023-04-15T11:43:48;84.93;;;46.60;;
29570;SDS011;16814;52.118;11.436;2023-04-15T11:46:15;78.95;;;44.92;;
29570;SDS011;16814;52.118;11.436;2023-04-15T11:48:44;78.85;;;45.72;;
29570;SDS011;16814;52.118;11.436;2023-04-15T11:51:11;80.70;;;46.30;;
29570;SDS011;16814;52.118;11.436;2023-04-15T11:53:47;79.07;;;45.20;;
29570;SDS011;16814;52.118;11.436;2023-04-15T11:56:24;72.53;;;42.88;;
29570;SDS011;16814;52.118;11.436;2023-04-15T11:58:53;78.93;;;43.95;;
29570;SDS011;16814;52.118;11.436;2023-04-15T12:01:32;77.18;;;44.95;;
29570;SDS011;16814;52.118;11.436;2023-04-15T12:04:01;71.78;;;43.58;;
29570;SDS011;16814;52.118;11.436;2023-04-15T12:06:38;73.68;;;43.30;;
29570;SDS011;16814;52.118;11.436;2023-04-15T12:14:25;80.20;;;46.50;;
29570;SDS011;16814;52.118;11.436;2023-04-15T12:17:05;73.85;;;44.15;;
29570;SDS011;16814;52.118;11.436;2023-04-15T12:19:38;73.80;;;44.40;;
29570;SDS011;16814;52.118;11.436;2023-04-15T12:22:13;74.90;;;45.28;;
29570;SDS011;16814;52.118;11.436;2023-04-15T12:24:41;77.63;;;45.00;;
29570;SDS011;16814;52.118;11.436;2023-04-15T12:27:11;77.68;;;45.40;;
29570;SDS011;16814;52.118;11.436;2023-04-15T12:29:37;74.93;;;44.75;;
29570;SDS011;16814;52.118;11.436;2023-04-15T12:32:15;73.68;;;43.75;;
29570;SDS011;16814;52.118;11.436;2023-04-15T12:34:48;75.78;;;43.03;;
29570;SDS011;16814;52.118;11.436;2023-04-15T12:37:17;74.07;;;44.75;;
29570;SDS011;16814;52.118;11.436;2023-04-15T12:39:46;73.60;;;43.33;;
29570;SDS011;16814;52.118;11.436;2023-04-15T12:42:13;77.97;;;43.88;;
29570;SDS011;16814;52.118;11.436;2023-04-15T12:44:42;76.72;;;44.58;;
29570;SDS011;16814;52.118;11.436;2023-04-15T12:47:08;74.07;;;44.83;;
29570;SDS011;16814;52.118;11.436;2023-04-15T12:49:35;79.13;;;46.17;;
29570;SDS011;16814;52.118;11.436;2023-04-15T12:52:03;79.70;;;45.30;;
29570;SDS011;16814;52.118;11.436;2023-04-15T12:54:40;78.10;;;44.55;;
29570;SDS011;16814;52.118;11.436;2023-04-15T12:57:06;76.25;;;45.72;;
29570;SDS011;16814;52.118;11.436;2023-04-15T12:59:34;77.40;;;44.60;;
29570;SDS011;16814;52.118;11.436;2023-04-15T13:02:02;73.38;;;43.20;;
29570;SDS011;16814;52.118;11.436;2023-04-15T13:04:30;73.57;;;42.70;;
29570;SDS011;16814;52.118;11.436;2023-04-15T13:06:58;72.32;;;43.03;;
29570;SDS011;16814;52.118;11.436;2023-04-15T13:09:28;71.57;;;42.60;;
29570;SDS011;16814;52.118;11.436;2023-04-15T13:11:57;71.05;;;41.63;;
29570;SDS011;16814;52.118;11.436;2023-04-15T13:14:28;73.20;;;42.85;;
29570;SDS011;16814;52.118;11.436;2023-04-15T13:16:56;71.85;;;42.70;;
29570;SDS011;16814;52.118;11.436;2023-04-15T13:19:22;69.90;;;42.20;;
29570;SDS011;16814;52.118;11.436;2023-04-15T13:21:47;68.63;;;41.92;;
29570;SDS011;16814;52.118;11.436;2023-04-15T13:24:13;69.27;;;42.73;;
29570;SDS011;16814;52.118;11.436;2023-04-15T13:26:40;68.05;;;42.42;;
29570;SDS011;16814;52.118;11.436;2023-04-15T13:29:06;65.70;;;40.60;;
29570;SDS011;16814;52.118;11.436;2023-04-15T13:31:35;63.75;;;40.78;;
29570;SDS011;16814;52.118;11.436;2023-04-15T13:34:01;62.85;;;39.80;;
29570;SDS011;16814;52.118;11.436;2023-04-15T13:36:28;58.10;;;37.30;;
29570;SDS011;16814;52.118;11.436;2023-04-15T13:38:56;56.42;;;36.10;;
29570;SDS011;16814;52.118;11.436;2023-04-15T13:41:23;57.35;;;37.92;;
29570;SDS011;16814;52.118;11.436;2023-04-15T13:43:49;56.93;;;37.07;;
29570;SDS011;16814;52.118;11.436;2023-04-15T13:46:16;54.90;;;36.50;;
29570;SDS011;16814;52.118;11.436;2023-04-15T13:48:42;56.50;;;35.85;;
29570;SDS011;16814;52.118;11.436;2023-04-15T13:51:09;52.53;;;34.33;;
29570;SDS011;16814;52.118;11.436;2023-04-15T13:53:37;54.83;;;35.27;;
29570;SDS011;16814;52.118;11.436;2023-04-15T13:56:05;53.65;;;34.90;;
29570;SDS011;16814;52.118;11.436;2023-04-15T13:58:34;47.58;;;33.42;;
29570;SDS011;16814;52.118;11.436;2023-04-15T14:01:02;50.00;;;34.17;;
29570;SDS011;16814;52.118;11.436;2023-04-15T14:03:36;49.57;;;34.47;;
29570;SDS011;16814;52.118;11.436;2023-04-15T14:06:03;53.72;;;35.25;;
29570;SDS011;16814;52.118;11.436;2023-04-15T14:08:30;55.67;;;34.65;;
29570;SDS011;16814;52.118;11.436;2023-04-15T14:10:58;50.77;;;33.97;;
29570;SDS011;16814;52.118;11.436;2023-04-15T14:13:25;56.15;;;33.85;;
29570;SDS011;16814;52.118;11.436;2023-04-15T14:15:53;50.75;;;32.83;;
29570;SDS011;16814;52.118;11.436;2023-04-15T14:18:22;55.05;;;36.03;;
29570;SDS011;16814;52.118;11.436;2023-04-15T14:20:49;54.63;;;34.83;;
29570;SDS011;16814;52.118;11.436;2023-04-15T14:23:14;54.50;;;34.25;;
29570;SDS011;16814;52.118;11.436;2023-04-15T14:25:41;64.40;;;38.30;;
29570;SDS011;16814;52.118;11.436;2023-04-15T14:28:08;68.17;;;40.03;;
29570;SDS011;16814;52.118;11.436;2023-04-15T14:30:36;65.53;;;40.28;;
29570;SDS011;16814;52.118;11.436;2023-04-15T14:33:04;64.18;;;39.67;;
29570;SDS011;16814;52.118;11.436;2023-04-15T14:35:30;60.67;;;36.95;;
29570;SDS011;16814;52.118;11.436;2023-04-15T14:37:56;57.13;;;36.47;;
29570;SDS011;16814;52.118;11.436;2023-04-15T14:40:22;59.83;;;38.28;;
29570;SDS011;16814;52.118;11.436;2023-04-15T14:42:50;59.83;;;38.53;;
29570;SDS011;16814;52.118;11.436;2023-04-15T14:45:16;74.72;;;45.17;;